createdAt,value
2019-05-19T00:00:20.993Z,19.38
2019-05-19T00:02:49.758Z,19.38
2019-05-19T00:05:18.230Z,19.17
2019-05-19T00:07:46.810Z,19.50
2019-05-19T00:10:15.594Z,19.20
2019-05-19T00:12:44.087Z,18.95
2019-05-19T00:15:12.722Z,19.15
2019-05-19T00:17:41.303Z,19.36
2019-05-19T00:20:09.782Z,19.46
2019-05-19T00:22:38.383Z,19.14
2019-05-19T00:25:07.787Z,18.99
2019-05-19T00:27:36.371Z,18.74
2019-05-19T00:30:05.752Z,19.01
2019-05-19T00:32:35.065Z,19.30
2019-05-19T00:35:04.051Z,19.00
2019-05-19T00:37:32.561Z,18.99
2019-05-19T00:40:01.140Z,19.09
2019-05-19T00:42:29.835Z,18.95
2019-05-19T00:44:58.419Z,19.05
2019-05-19T00:47:27.134Z,18.97
2019-05-19T00:49:55.744Z,19.15
2019-05-19T00:52:24.240Z,19.28
2019-05-19T00:54:52.942Z,19.30
2019-05-19T00:57:22.453Z,19.26
2019-05-19T00:59:51.649Z,19.36
2019-05-19T01:02:20.233Z,18.98
2019-05-19T01:04:48.726Z,18.90
2019-05-19T01:07:17.208Z,19.20
2019-05-19T01:09:45.811Z,18.93
2019-05-19T01:12:14.431Z,19.22
2019-05-19T01:14:42.833Z,19.50
2019-05-19T01:17:11.622Z,19.17
2019-05-19T01:19:40.206Z,18.79
2019-05-19T01:22:08.907Z,19.13
2019-05-19T01:24:37.486Z,18.84
2019-05-19T01:27:05.982Z,19.25
2019-05-19T01:29:34.621Z,18.97
2019-05-19T01:32:03.103Z,18.84
2019-05-19T01:34:31.714Z,18.67
2019-05-19T01:37:00.197Z,18.34
2019-05-19T01:39:28.957Z,18.19
2019-05-19T01:41:57.537Z,18.37
2019-05-19T01:44:26.020Z,18.53
2019-05-19T01:46:54.508Z,18.45
2019-05-19T01:49:22.993Z,18.60
2019-05-19T01:51:51.569Z,18.55
2019-05-19T01:54:20.427Z,18.76
2019-05-19T01:56:49.052Z,18.46
2019-05-19T01:59:17.518Z,18.31
2019-05-19T02:01:46.008Z,18.32
2019-05-19T02:04:14.633Z,18.52
2019-05-19T02:06:43.228Z,18.41
2019-05-19T02:09:11.732Z,18.63
2019-05-19T02:11:40.270Z,18.54
2019-05-19T02:14:08.867Z,18.50
2019-05-19T02:16:37.392Z,18.27
2019-05-19T02:19:06.022Z,18.36
2019-05-19T02:21:34.660Z,18.61
2019-05-19T02:24:03.261Z,18.64
2019-05-19T02:26:31.969Z,18.33
2019-05-19T02:29:00.426Z,18.06
2019-05-19T02:31:29.024Z,18.38
2019-05-19T02:33:57.627Z,18.34
2019-05-19T02:36:26.193Z,18.03
2019-05-19T02:38:54.799Z,18.15
2019-05-19T02:41:25.849Z,18.42
2019-05-19T02:43:56.324Z,18.07
2019-05-19T02:46:24.901Z,18.38
2019-05-19T02:48:54.110Z,18.47
2019-05-19T02:51:25.620Z,18.38
2019-05-19T02:53:55.305Z,17.93
2019-05-19T02:56:25.530Z,18.06
2019-05-19T02:58:55.112Z,17.88
2019-05-19T03:01:23.503Z,17.92
2019-05-19T03:03:52.205Z,17.88
2019-05-19T03:06:20.689Z,18.11
2019-05-19T03:08:49.166Z,18.35
2019-05-19T03:11:17.613Z,18.31
2019-05-19T03:13:46.109Z,17.95
2019-05-19T03:16:14.707Z,17.70
2019-05-19T03:18:43.103Z,17.80
2019-05-19T03:21:12.183Z,17.88
2019-05-19T03:23:40.761Z,17.86
2019-05-19T03:26:09.237Z,17.63
2019-05-19T03:28:37.817Z,17.61
2019-05-19T03:31:14.343Z,17.46
2019-05-19T03:33:44.631Z,17.50
2019-05-19T03:36:13.120Z,17.86
2019-05-19T03:38:41.703Z,17.73
2019-05-19T03:41:10.283Z,17.68
2019-05-19T03:43:39.004Z,17.58
2019-05-19T03:46:07.620Z,17.59
2019-05-19T03:48:36.115Z,17.68
2019-05-19T03:51:04.833Z,17.57
2019-05-19T03:53:33.387Z,17.64
2019-05-19T03:56:01.994Z,17.79
2019-05-19T03:58:30.592Z,17.93
2019-05-19T04:00:59.083Z,17.81
2019-05-19T04:03:27.658Z,17.78
2019-05-19T04:05:56.134Z,17.74
2019-05-19T04:08:24.748Z,17.57
2019-05-19T04:10:53.334Z,17.84
2019-05-19T04:13:21.918Z,17.88
2019-05-19T04:15:50.430Z,17.73
2019-05-19T04:18:19.063Z,17.59
2019-05-19T04:20:47.525Z,17.42
2019-05-19T04:23:15.919Z,17.82
2019-05-19T04:25:44.566Z,17.61
2019-05-19T04:28:13.041Z,17.54
2019-05-19T04:30:41.528Z,17.60
2019-05-19T04:33:10.021Z,17.68
2019-05-19T04:35:38.608Z,17.75
2019-05-19T04:38:07.112Z,17.76
2019-05-19T04:40:35.834Z,17.82
2019-05-19T04:43:04.459Z,17.90
2019-05-19T04:45:32.948Z,17.98
2019-05-19T04:48:01.642Z,18.08
2019-05-19T04:50:30.233Z,18.04
2019-05-19T04:52:58.751Z,18.07
2019-05-19T04:55:27.248Z,18.45
2019-05-19T04:57:55.862Z,18.47
2019-05-19T05:00:24.360Z,18.54
2019-05-19T05:02:52.960Z,18.65
2019-05-19T05:05:21.465Z,18.65
2019-05-19T05:07:49.951Z,18.72
2019-05-19T05:10:18.634Z,18.65
2019-05-19T05:12:47.224Z,18.72
2019-05-19T05:15:16.090Z,18.88
2019-05-19T05:17:44.737Z,18.99
2019-05-19T05:20:13.511Z,19.02
2019-05-19T05:22:42.003Z,19.50
2019-05-19T05:25:10.903Z,19.78
2019-05-19T05:27:39.510Z,19.83
2019-05-19T05:30:08.485Z,19.38
2019-05-19T05:32:37.283Z,19.33
2019-05-19T05:35:06.751Z,19.28
2019-05-19T05:37:35.247Z,19.74
2019-05-19T05:40:04.694Z,19.60
2019-05-19T05:42:33.310Z,19.73
2019-05-19T05:45:01.884Z,19.91
2019-05-19T05:47:30.508Z,19.82
2019-05-19T05:49:58.886Z,19.99
2019-05-19T05:52:38.143Z,20.26
2019-05-19T05:54:58.018Z,20.42
2019-05-19T05:57:26.505Z,20.57
2019-05-19T05:59:55.105Z,20.46
2019-05-19T06:02:23.596Z,20.46
2019-05-19T06:04:52.097Z,20.40
2019-05-19T06:07:20.682Z,20.51
2019-05-19T06:09:49.410Z,20.70
2019-05-19T06:12:17.770Z,20.77
2019-05-19T06:14:46.264Z,20.84
2019-05-19T06:17:14.800Z,21.09
2019-05-19T06:19:43.357Z,21.24
2019-05-19T06:22:11.867Z,21.31
2019-05-19T06:24:40.514Z,21.34
2019-05-19T06:27:09.003Z,21.38
2019-05-19T06:29:37.605Z,21.58
2019-05-19T06:32:16.434Z,21.58
2019-05-19T06:34:45.084Z,21.31
2019-05-19T06:37:13.724Z,21.44
2019-05-19T06:39:42.300Z,21.56
2019-05-19T06:42:10.885Z,21.75
2019-05-19T06:44:39.689Z,21.69
2019-05-19T06:47:08.240Z,21.73
2019-05-19T06:49:36.921Z,21.75
2019-05-19T06:52:05.506Z,21.72
2019-05-19T06:54:34.284Z,21.94
2019-05-19T06:57:02.813Z,22.17
2019-05-19T06:59:31.613Z,22.18
2019-05-19T07:02:00.203Z,22.26
2019-05-19T07:04:28.757Z,22.37
2019-05-19T07:06:57.418Z,22.57
2019-05-19T07:09:26.398Z,22.54
2019-05-19T07:11:55.144Z,22.58
2019-05-19T07:14:23.725Z,22.54
2019-05-19T07:16:52.212Z,22.76
2019-05-19T07:19:20.827Z,22.77
2019-05-19T07:21:49.521Z,22.94
2019-05-19T07:24:18.124Z,22.85
2019-05-19T07:26:46.827Z,22.89
2019-05-19T07:29:15.426Z,22.93
2019-05-19T07:31:43.919Z,23.00
2019-05-19T07:34:12.333Z,23.16
2019-05-19T07:36:40.936Z,23.35
2019-05-19T07:39:09.576Z,23.43
2019-05-19T07:41:38.145Z,23.38
2019-05-19T07:44:06.750Z,23.50
2019-05-19T07:46:35.253Z,23.58
2019-05-19T07:49:03.755Z,23.69
2019-05-19T07:51:32.341Z,23.69
2019-05-19T07:54:00.974Z,23.75
2019-05-19T07:56:29.468Z,23.74
2019-05-19T07:58:58.089Z,23.76
2019-05-19T08:01:26.793Z,23.87
2019-05-19T08:03:55.314Z,24.03
2019-05-19T08:06:23.886Z,24.16
2019-05-19T08:08:52.517Z,24.34
2019-05-19T08:11:21.012Z,24.42
2019-05-19T08:13:49.900Z,24.46
2019-05-19T08:16:18.415Z,24.68
2019-05-19T08:18:47.110Z,24.55
2019-05-19T08:21:15.645Z,24.64
2019-05-19T08:23:59.160Z,24.73
2019-05-19T08:26:14.642Z,24.87
2019-05-19T08:28:43.231Z,24.84
2019-05-19T08:31:11.827Z,24.91
2019-05-19T08:33:40.324Z,24.95
2019-05-19T08:36:08.777Z,25.12
2019-05-19T08:38:37.293Z,25.04
2019-05-19T08:41:05.864Z,25.32
2019-05-19T08:43:34.437Z,25.24
2019-05-19T08:46:03.019Z,25.33
2019-05-19T08:48:31.511Z,25.57
2019-05-19T08:51:00.000Z,25.49
2019-05-19T08:53:28.484Z,25.37
2019-05-19T08:55:56.893Z,25.46
2019-05-19T08:58:25.386Z,25.56
2019-05-19T09:00:53.966Z,25.52
2019-05-19T09:03:22.358Z,25.46
2019-05-19T09:05:50.752Z,25.34
2019-05-19T09:08:19.158Z,25.18
2019-05-19T09:10:47.657Z,25.23
2019-05-19T09:13:16.131Z,25.47
2019-05-19T09:15:44.675Z,25.37
2019-05-19T09:18:13.402Z,25.78
2019-05-19T09:20:42.084Z,26.02
2019-05-19T09:23:10.578Z,25.84
2019-05-19T09:25:39.197Z,25.81
2019-05-19T09:28:07.776Z,25.62
2019-05-19T09:30:36.261Z,25.62
2019-05-19T09:33:04.847Z,25.83
2019-05-19T09:35:33.441Z,25.91
2019-05-19T09:38:01.923Z,26.16
2019-05-19T09:40:30.421Z,26.06
2019-05-19T09:42:59.012Z,26.04
2019-05-19T09:45:27.483Z,26.24
2019-05-19T09:47:55.970Z,26.37
2019-05-19T09:50:24.545Z,26.51
2019-05-19T09:52:53.122Z,26.60
2019-05-19T09:55:21.608Z,26.80
2019-05-19T09:57:50.190Z,26.75
2019-05-19T10:00:22.294Z,27.00
2019-05-19T10:02:50.978Z,26.71
2019-05-19T10:05:19.470Z,26.70
2019-05-19T10:07:48.085Z,26.67
2019-05-19T10:10:18.107Z,26.63
2019-05-19T10:12:46.605Z,26.76
2019-05-19T10:15:15.223Z,26.72
2019-05-19T10:17:43.937Z,26.69
2019-05-19T10:20:13.343Z,26.70
2019-05-19T10:22:41.825Z,26.75
2019-05-19T10:25:21.755Z,26.89
2019-05-19T10:27:41.973Z,26.72
2019-05-19T10:30:11.695Z,26.68
2019-05-19T10:32:40.377Z,26.55
2019-05-19T10:35:09.003Z,26.45
2019-05-19T10:37:37.747Z,26.63
2019-05-19T10:40:07.158Z,26.48
2019-05-19T10:42:35.665Z,26.57
2019-05-19T10:45:05.988Z,26.57
2019-05-19T10:47:34.570Z,26.51
2019-05-19T10:50:03.689Z,26.49
2019-05-19T10:52:32.429Z,26.73
2019-05-19T10:55:01.035Z,26.79
2019-05-19T10:57:29.712Z,26.88
2019-05-19T10:59:58.324Z,27.03
2019-05-19T11:02:26.938Z,26.70
2019-05-19T11:04:55.629Z,26.71
2019-05-19T11:07:24.118Z,26.94
2019-05-19T11:09:52.737Z,27.03
2019-05-19T11:12:21.325Z,27.18
2019-05-19T11:14:49.919Z,27.16
2019-05-19T11:17:18.624Z,27.13
2019-05-19T11:19:47.206Z,27.13
2019-05-19T11:22:15.890Z,27.39
2019-05-19T11:24:44.570Z,27.28
2019-05-19T11:27:13.238Z,27.45
2019-05-19T11:29:41.819Z,27.26
2019-05-19T11:32:10.398Z,27.16
2019-05-19T11:34:39.074Z,27.16
2019-05-19T11:37:07.590Z,27.07
2019-05-19T11:39:36.142Z,27.19
2019-05-19T11:42:04.747Z,27.16
2019-05-19T11:44:33.573Z,27.11
2019-05-19T11:47:02.301Z,27.03
2019-05-19T11:49:30.983Z,27.00
2019-05-19T11:51:59.599Z,27.26
2019-05-19T11:54:28.281Z,27.16
2019-05-19T11:56:56.864Z,27.37
2019-05-19T11:59:25.461Z,27.34
2019-05-19T12:01:54.065Z,27.36
2019-05-19T12:04:22.649Z,27.37
2019-05-19T12:06:51.189Z,27.49
2019-05-19T12:09:19.972Z,27.52
2019-05-19T12:11:48.555Z,27.56
2019-05-19T12:14:17.148Z,27.42
2019-05-19T12:16:45.831Z,27.36
2019-05-19T12:19:14.758Z,27.45
2019-05-19T12:21:43.347Z,27.37
2019-05-19T12:24:11.908Z,27.40
2019-05-19T12:26:40.508Z,27.41
2019-05-19T12:29:09.016Z,27.46
2019-05-19T12:31:37.613Z,27.56
2019-05-19T12:34:06.446Z,27.55
2019-05-19T12:36:35.145Z,27.34
2019-05-19T12:39:05.282Z,27.36
2019-05-19T12:41:33.882Z,27.30
2019-05-19T12:44:02.635Z,27.31
2019-05-19T12:46:31.244Z,27.29
2019-05-19T12:49:00.031Z,27.32
2019-05-19T12:51:28.541Z,27.26
2019-05-19T12:53:57.334Z,27.26
2019-05-19T12:56:38.576Z,27.11
2019-05-19T12:58:56.343Z,26.94
2019-05-19T13:01:25.030Z,27.03
2019-05-19T13:03:53.741Z,27.02
2019-05-19T13:06:22.370Z,26.95
2019-05-19T13:08:51.250Z,26.93
2019-05-19T13:11:19.844Z,26.91
2019-05-19T13:13:48.417Z,26.96
2019-05-19T13:16:17.113Z,26.78
2019-05-19T13:18:45.813Z,26.76
2019-05-19T13:21:14.421Z,26.66
2019-05-19T13:23:43.230Z,26.59
2019-05-19T13:26:11.820Z,26.63
2019-05-19T13:28:40.411Z,26.69
2019-05-19T13:31:09.222Z,26.63
2019-05-19T13:33:37.899Z,26.64
2019-05-19T13:36:06.496Z,26.58
2019-05-19T13:38:35.089Z,26.61
2019-05-19T13:41:04.092Z,26.63
2019-05-19T13:43:32.687Z,26.51
2019-05-19T13:46:01.391Z,26.47
2019-05-19T13:48:30.093Z,26.62
2019-05-19T13:50:58.774Z,26.61
2019-05-19T13:53:27.567Z,26.46
2019-05-19T13:55:56.049Z,26.52
2019-05-19T13:58:24.644Z,26.57
2019-05-19T14:00:53.249Z,26.58
2019-05-19T14:03:22.236Z,26.55
2019-05-19T14:05:50.917Z,26.43
2019-05-19T14:08:19.624Z,26.48
2019-05-19T14:10:48.223Z,26.37
2019-05-19T14:13:16.838Z,26.28
2019-05-19T14:15:45.434Z,26.43
2019-05-19T14:18:14.365Z,26.32
2019-05-19T14:20:43.282Z,26.32
2019-05-19T14:23:11.880Z,26.33
2019-05-19T14:25:40.379Z,26.38
2019-05-19T14:28:08.972Z,26.23
2019-05-19T14:30:37.577Z,26.31
2019-05-19T14:33:06.267Z,26.04
2019-05-19T14:35:34.976Z,26.01
2019-05-19T14:38:03.658Z,25.93
2019-05-19T14:40:32.274Z,26.00
2019-05-19T14:43:01.740Z,26.05
2019-05-19T14:45:30.848Z,25.92
2019-05-19T14:47:59.629Z,25.89
2019-05-19T14:50:28.233Z,25.97
2019-05-19T14:52:56.812Z,25.75
2019-05-19T14:55:25.400Z,25.68
2019-05-19T14:57:53.900Z,25.75
2019-05-19T15:00:23.294Z,25.62
2019-05-19T15:02:51.795Z,25.69
2019-05-19T15:05:20.397Z,25.74
2019-05-19T15:07:48.972Z,25.69
2019-05-19T15:10:17.776Z,25.66
2019-05-19T15:12:46.466Z,25.51
2019-05-19T15:15:15.792Z,25.42
2019-05-19T15:17:44.267Z,25.55
2019-05-19T15:20:12.756Z,25.71
2019-05-19T15:22:41.349Z,25.71
2019-05-19T15:25:10.021Z,25.46
2019-05-19T15:27:38.620Z,25.55
2019-05-19T15:30:13.179Z,25.57
2019-05-19T15:32:38.753Z,25.52
2019-05-19T15:35:07.670Z,25.38
2019-05-19T15:37:36.275Z,25.40
2019-05-19T15:40:05.351Z,25.30
2019-05-19T15:42:33.962Z,25.29
2019-05-19T15:45:02.551Z,25.37
2019-05-19T15:47:31.244Z,25.31
2019-05-19T15:49:59.756Z,25.10
2019-05-19T15:52:28.264Z,24.99
2019-05-19T15:54:56.861Z,25.06
2019-05-19T15:57:28.546Z,24.78
2019-05-19T15:59:55.947Z,24.59
2019-05-19T16:02:24.538Z,24.59
2019-05-19T16:04:53.139Z,24.66
2019-05-19T16:07:21.631Z,24.49
2019-05-19T16:09:50.215Z,24.42
2019-05-19T16:12:18.911Z,24.43
2019-05-19T16:14:47.319Z,24.54
2019-05-19T16:17:15.870Z,24.60
2019-05-19T16:19:44.611Z,24.50
2019-05-19T16:22:13.299Z,24.61
2019-05-19T16:24:41.882Z,24.49
2019-05-19T16:27:12.845Z,24.38
2019-05-19T16:29:40.748Z,24.22
2019-05-19T16:32:09.236Z,24.15
2019-05-19T16:34:37.821Z,23.98
2019-05-19T16:37:06.230Z,23.96
2019-05-19T16:39:34.809Z,24.00
2019-05-19T16:42:03.531Z,23.94
2019-05-19T16:44:32.134Z,23.78
2019-05-19T16:47:00.614Z,23.94
2019-05-19T16:49:29.139Z,24.00
2019-05-19T16:51:57.622Z,23.93
2019-05-19T16:54:30.844Z,23.80
2019-05-19T16:56:59.432Z,23.99
2019-05-19T16:59:28.026Z,24.10
2019-05-19T17:01:56.518Z,24.06
2019-05-19T17:04:25.116Z,24.02
2019-05-19T17:06:53.592Z,24.14
2019-05-19T17:09:22.283Z,23.96
2019-05-19T17:11:50.864Z,23.94
2019-05-19T17:14:19.565Z,23.89
2019-05-19T17:16:48.057Z,23.87
2019-05-19T17:19:16.783Z,23.98
2019-05-19T17:21:45.361Z,24.06
2019-05-19T17:24:13.986Z,23.93
2019-05-19T17:26:42.501Z,23.67
2019-05-19T17:29:11.132Z,23.60
2019-05-19T17:31:39.655Z,23.68
2019-05-19T17:34:08.267Z,23.83
2019-05-19T17:36:36.770Z,23.78
2019-05-19T17:39:06.245Z,23.85
2019-05-19T17:41:34.741Z,23.84
2019-05-19T17:44:03.403Z,23.72
2019-05-19T17:46:32.210Z,23.59
2019-05-19T17:49:00.940Z,23.68
2019-05-19T17:51:29.454Z,23.78
2019-05-19T17:53:58.006Z,23.52
2019-05-19T17:56:28.043Z,23.76
2019-05-19T17:58:57.248Z,23.60
2019-05-19T18:01:25.950Z,23.75
2019-05-19T18:03:54.593Z,23.78
2019-05-19T18:06:23.119Z,23.80
2019-05-19T18:08:51.735Z,23.88
2019-05-19T18:11:20.239Z,23.92
2019-05-19T18:13:48.805Z,23.72
2019-05-19T18:16:17.325Z,23.81
2019-05-19T18:18:45.961Z,23.40
2019-05-19T18:21:14.458Z,23.00
2019-05-19T18:23:43.191Z,22.79
2019-05-19T18:26:11.822Z,22.78
2019-05-19T18:28:40.366Z,22.99
2019-05-19T18:31:09.120Z,23.24
2019-05-19T18:33:37.827Z,23.03
2019-05-19T18:36:06.570Z,22.69
2019-05-19T18:38:35.205Z,23.12
2019-05-19T18:41:03.900Z,22.86
2019-05-19T18:43:32.486Z,22.85
2019-05-19T18:46:01.109Z,23.07
2019-05-19T18:48:29.652Z,22.72
2019-05-19T18:50:58.146Z,22.75
2019-05-19T18:53:26.687Z,22.59
2019-05-19T18:55:55.209Z,22.53
2019-05-19T18:58:23.900Z,22.60
2019-05-19T19:00:52.578Z,22.63
2019-05-19T19:03:21.111Z,22.65
2019-05-19T19:05:49.723Z,22.56
2019-05-19T19:08:18.431Z,22.34
2019-05-19T19:10:47.058Z,22.21
2019-05-19T19:13:15.701Z,22.52
2019-05-19T19:15:44.227Z,22.81
2019-05-19T19:18:12.841Z,22.67
2019-05-19T19:20:41.452Z,22.67
2019-05-19T19:23:09.947Z,22.55
2019-05-19T19:25:38.438Z,22.18
2019-05-19T19:28:07.133Z,22.43
2019-05-19T19:30:35.744Z,22.33
2019-05-19T19:33:04.444Z,22.44
2019-05-19T19:35:39.286Z,22.34
2019-05-19T19:38:03.314Z,22.49
2019-05-19T19:40:32.121Z,22.21
2019-05-19T19:43:01.010Z,22.20
2019-05-19T19:45:29.609Z,22.21
2019-05-19T19:47:58.136Z,22.23
2019-05-19T19:50:26.636Z,22.15
2019-05-19T19:52:55.238Z,22.02
2019-05-19T19:55:23.934Z,21.96
2019-05-19T19:57:52.529Z,21.98
2019-05-19T20:00:41.640Z,21.89
2019-05-19T20:03:10.432Z,22.07
2019-05-19T20:05:39.120Z,21.94
2019-05-19T20:08:07.727Z,22.06
2019-05-19T20:10:36.457Z,22.10
2019-05-19T20:13:05.082Z,22.06
2019-05-19T20:15:34.220Z,22.10
2019-05-19T20:18:02.832Z,22.15
2019-05-19T20:20:31.424Z,22.17
2019-05-19T20:23:00.023Z,21.95
2019-05-19T20:25:28.533Z,21.87
2019-05-19T20:27:57.282Z,21.86
2019-05-19T20:30:35.182Z,22.06
2019-05-19T20:32:56.406Z,22.32
2019-05-19T20:35:24.950Z,22.10
2019-05-19T20:37:53.441Z,22.24
2019-05-19T20:40:30.270Z,22.03
2019-05-19T20:42:58.894Z,21.67
2019-05-19T20:45:27.885Z,21.67
2019-05-19T20:47:56.772Z,21.65
2019-05-19T20:50:25.761Z,21.71
2019-05-19T20:52:54.740Z,21.63
2019-05-19T20:55:23.387Z,21.57
2019-05-19T20:57:52.033Z,21.70
2019-05-19T21:00:21.063Z,21.70
2019-05-19T21:02:49.830Z,21.57
2019-05-19T21:05:18.460Z,21.40
2019-05-19T21:07:47.367Z,21.35
2019-05-19T21:10:15.979Z,21.49
2019-05-19T21:12:44.634Z,21.38
2019-05-19T21:15:13.524Z,21.34
2019-05-19T21:17:42.231Z,21.62
2019-05-19T21:20:11.816Z,21.58
2019-05-19T21:22:41.438Z,21.63
2019-05-19T21:25:10.525Z,21.71
2019-05-19T21:27:39.191Z,21.74
2019-05-19T21:30:09.408Z,21.79
2019-05-19T21:32:38.027Z,21.64
2019-05-19T21:35:06.745Z,21.63
2019-05-19T21:37:35.460Z,21.62
2019-05-19T21:40:05.265Z,21.64
2019-05-19T21:42:33.899Z,21.69
2019-05-19T21:45:02.847Z,21.52
2019-05-19T21:47:31.672Z,21.35
2019-05-19T21:50:00.279Z,21.46
2019-05-19T21:52:29.000Z,21.25
2019-05-19T21:54:57.732Z,21.25
2019-05-19T21:57:26.341Z,21.30
2019-05-19T21:59:55.077Z,21.30
2019-05-19T22:02:23.813Z,21.18
2019-05-19T22:04:52.548Z,21.06
2019-05-19T22:07:34.784Z,20.98
2019-05-19T22:10:03.623Z,20.79
2019-05-19T22:12:32.363Z,20.76
2019-05-19T22:15:01.108Z,20.77
2019-05-19T22:17:29.761Z,20.89
2019-05-19T22:19:58.614Z,20.94
2019-05-19T22:22:27.236Z,21.01
2019-05-19T22:24:55.876Z,21.22
2019-05-19T22:27:24.630Z,21.15
2019-05-19T22:29:53.171Z,21.16
2019-05-19T22:32:21.974Z,21.32
2019-05-19T22:34:50.814Z,21.29
2019-05-19T22:37:19.462Z,21.38
2019-05-19T22:39:48.100Z,21.49
2019-05-19T22:42:16.951Z,21.53
2019-05-19T22:44:45.572Z,21.35
2019-05-19T22:47:14.430Z,21.36
2019-05-19T22:49:43.150Z,21.38
2019-05-19T22:52:11.880Z,21.41
2019-05-19T22:54:40.615Z,21.46
2019-05-19T22:57:09.266Z,21.30
2019-05-19T22:59:37.773Z,21.47
2019-05-19T23:02:09.174Z,21.30
2019-05-19T23:04:37.182Z,21.38
2019-05-19T23:07:05.836Z,21.22
2019-05-19T23:09:34.675Z,21.29
2019-05-19T23:12:03.308Z,21.24
2019-05-19T23:14:32.060Z,21.09
2019-05-19T23:17:00.771Z,21.27
2019-05-19T23:19:29.496Z,21.19
2019-05-19T23:21:58.339Z,21.08
2019-05-19T23:24:27.066Z,21.03
2019-05-19T23:26:55.809Z,20.94
2019-05-19T23:29:24.669Z,21.10
2019-05-19T23:32:06.390Z,21.06
2019-05-19T23:34:23.988Z,20.59
2019-05-19T23:36:52.769Z,20.55
2019-05-19T23:39:21.392Z,20.51
2019-05-19T23:41:50.229Z,20.52
2019-05-19T23:44:18.975Z,20.38
2019-05-19T23:46:47.694Z,20.19
2019-05-19T23:49:16.314Z,20.06
2019-05-19T23:51:44.943Z,20.15
2019-05-19T23:54:13.571Z,19.96
2019-05-19T23:56:42.305Z,20.30
2019-05-19T23:59:10.963Z,20.35
